Time;durP1;ratioP1;P1;durP2;ratioP2;P2;SDS_P1;SDS_P2;PMS_P1;PMS_P2;Temp;Humidity;BMP_temperature;BMP_pressure;BME280_temperature;BME280_humidity;BME280_pressure;Samples;Min_cycle;Max_cycle;Signal;HPM_P1;HPM_P2
2021/01/04 00:00:18;;;;;;;;;;;23.30;41.70;;;;;;1568229;74;593;-56
2021/01/04 00:02:38;;;;;;;;;;;23.20;41.60;;;;;;1549585;74;948;-57
2021/01/04 00:04:44;;;;;;;;;;;23.30;41.80;;;;;;1558366;74;749;-55
2021/01/04 00:06:53;;;;;;;;;;;23.30;41.80;;;;;;1550385;74;1774;-55
2021/01/04 00:09:03;;;;;;;;;;;23.40;41.80;;;;;;1549012;74;731;-55
2021/01/04 00:11:09;;;;;;;;;;;23.40;41.70;;;;;;1551527;74;706;-55
2021/01/04 00:13:28;;;;;;;;;;;23.40;41.60;;;;;;1548919;74;1935;-56
2021/01/04 00:15:32;;;;;;;;;;;23.40;41.60;;;;;;1553250;74;1190;-56
2021/01/04 00:17:38;;;;;;;;;;;23.50;41.50;;;;;;1559536;74;1863;-55
2021/01/04 00:19:42;;;;;;;;;;;23.50;41.60;;;;;;1563599;74;1771;-55
2021/01/04 00:21:57;;;;;;;;;;;23.40;41.40;;;;;;1559811;74;727;-56
2021/01/04 00:24:01;;;;;;;;;;;23.40;41.40;;;;;;1552157;74;1962;-56
2021/01/04 00:26:04;;;;;;;;;;;23.40;41.30;;;;;;1550495;74;1706;-56
2021/01/04 00:28:07;;;;;;;;;;;23.40;41.30;;;;;;1553396;74;793;-57
2021/01/04 00:30:11;;;;;;;;;;;23.40;41.40;;;;;;1554558;74;751;-56
2021/01/04 00:32:17;;;;;;;;;;;23.40;41.30;;;;;;1558916;73;1935;-55
2021/01/04 00:34:23;;;;;;;;;;;23.40;41.40;;;;;;1548154;74;1421;-56
2021/01/04 00:36:31;;;;;;;;;;;23.40;41.30;;;;;;1551450;73;1615;-55
2021/01/04 00:38:41;;;;;;;;;;;23.40;41.20;;;;;;1548864;74;739;-56
2021/01/04 00:40:47;;;;;;;;;;;23.40;41.20;;;;;;1555563;74;716;-56
2021/01/04 00:42:49;;;;;;;;;;;23.40;41.30;;;;;;1552602;74;1834;-57
2021/01/04 00:44:53;;;;;;;;;;;23.40;41.20;;;;;;1552815;74;673;-56
2021/01/04 00:46:59;;;;;;;;;;;23.40;41.20;;;;;;1555619;74;1144;-56
2021/01/04 00:49:09;;;;;;;;;;;23.40;41.00;;;;;;1548231;74;745;-58
2021/01/04 00:51:21;;;;;;;;;;;23.50;41.00;;;;;;1546321;74;755;-57
2021/01/04 00:53:25;;;;;;;;;;;23.50;41.00;;;;;;1546779;74;1938;-56
2021/01/04 00:55:28;;;;;;;;;;;23.50;41.00;;;;;;1550201;74;1837;-56
2021/01/04 00:57:35;;;;;;;;;;;23.50;41.00;;;;;;1551977;74;1036;-56
2021/01/04 00:59:41;;;;;;;;;;;23.50;41.00;;;;;;1560331;74;846;-55
2021/01/04 01:02:00;;;;;;;;;;;23.50;41.00;;;;;;1554446;74;1724;-57
2021/01/04 01:04:03;;;;;;;;;;;23.50;41.00;;;;;;1555289;73;1927;-55
2021/01/04 01:06:09;;;;;;;;;;;23.40;41.00;;;;;;1554885;74;1745;-55
2021/01/04 01:08:13;;;;;;;;;;;23.50;41.10;;;;;;1551080;74;755;-56
2021/01/04 01:10:15;;;;;;;;;;;23.40;41.20;;;;;;1551329;74;772;-55
2021/01/04 01:12:21;;;;;;;;;;;23.40;41.10;;;;;;1552672;74;724;-55
2021/01/04 01:14:27;;;;;;;;;;;23.40;41.10;;;;;;1551803;74;1923;-58
2021/01/04 01:16:40;;;;;;;;;;;23.40;41.10;;;;;;1561185;74;1415;-55
2021/01/04 01:19:00;;;;;;;;;;;23.40;41.10;;;;;;1548091;74;730;-57
2021/01/04 01:21:03;;;;;;;;;;;23.40;41.10;;;;;;1555367;74;743;-57
2021/01/04 01:23:06;;;;;;;;;;;23.30;41.10;;;;;;1555125;74;820;-57
2021/01/04 01:25:09;;;;;;;;;;;23.40;41.00;;;;;;1548137;74;704;-55
2021/01/04 01:27:29;;;;;;;;;;;23.40;41.00;;;;;;1558777;74;1169;-57
2021/01/04 01:29:41;;;;;;;;;;;23.50;41.20;;;;;;1555363;74;722;-56
2021/01/04 01:31:57;;;;;;;;;;;23.50;41.10;;;;;;1550626;74;1763;-56
2021/01/04 01:34:00;;;;;;;;;;;23.50;41.10;;;;;;1552443;74;1921;-56
2021/01/04 01:36:04;;;;;;;;;;;23.50;41.10;;;;;;1552698;74;1134;-55
2021/01/04 01:38:19;;;;;;;;;;;23.50;41.10;;;;;;1557815;74;727;-54
2021/01/04 01:40:26;;;;;;;;;;;23.40;41.00;;;;;;1552639;74;1845;-55
2021/01/04 01:42:46;;;;;;;;;;;23.40;41.00;;;;;;1550481;74;696;-56
2021/01/04 01:44:50;;;;;;;;;;;23.40;40.80;;;;;;1549665;74;743;-54
2021/01/04 01:46:56;;;;;;;;;;;23.40;40.70;;;;;;1556864;74;1706;-56
2021/01/04 01:49:00;;;;;;;;;;;23.40;40.70;;;;;;1545033;74;687;-54
2021/01/04 01:51:02;;;;;;;;;;;23.50;40.70;;;;;;1552146;74;1010;-57
2021/01/04 01:53:09;;;;;;;;;;;23.60;40.50;;;;;;1565665;74;1940;-54
2021/01/04 01:55:15;;;;;;;;;;;23.50;40.40;;;;;;1559422;71;215239;-63
2021/01/04 01:57:25;;;;;;;;;;;23.60;40.30;;;;;;1565290;74;1179;-61
2021/01/04 01:59:38;;;;;;;;;;;23.60;40.10;;;;;;1569128;74;1619;-61
2021/01/04 02:01:47;;;;;;;;;;;23.60;40.00;;;;;;1567937;74;790;-61
2021/01/04 02:04:00;;;;;;;;;;;23.60;40.00;;;;;;1565686;75;780;-61
2021/01/04 02:06:16;;;;;;;;;;;23.60;39.90;;;;;;1563719;74;1132;-62
2021/01/04 02:08:19;;;;;;;;;;;23.50;39.90;;;;;;1559044;74;1006;-61
2021/01/04 02:10:22;;;;;;;;;;;23.50;40.00;;;;;;1570795;74;1064;-61
2021/01/04 02:12:41;;;;;;;;;;;23.50;39.90;;;;;;1561296;74;715;-61
2021/01/04 02:14:50;;;;;;;;;;;23.50;39.60;;;;;;1571303;74;892;-60
2021/01/04 02:16:56;;;;;;;;;;;23.40;39.60;;;;;;1561755;74;1114;-63
2021/01/04 02:19:03;;;;;;;;;;;23.50;39.80;;;;;;1546503;74;1631;-60
2021/01/04 02:21:23;;;;;;;;;;;23.50;39.90;;;;;;1563995;74;812;-61
2021/01/04 02:23:25;;;;;;;;;;;23.50;39.80;;;;;;1565450;74;760;-61
2021/01/04 02:25:27;;;;;;;;;;;23.50;39.80;;;;;;1572104;74;751;-60
2021/01/04 02:27:37;;;;;;;;;;;23.50;39.80;;;;;;1571030;74;1144;-60
2021/01/04 02:29:39;;;;;;;;;;;23.50;39.70;;;;;;1569274;74;755;-61
2021/01/04 02:31:41;;;;;;;;;;;23.50;39.70;;;;;;1565123;74;793;-61
2021/01/04 02:33:43;;;;;;;;;;;23.50;39.70;;;;;;1520003;76;1944;-60
2021/01/04 02:35:45;;;;;;;;;;;23.60;39.60;;;;;;1534076;76;1150;-60
2021/01/04 02:37:47;;;;;;;;;;;23.50;39.50;;;;;;1545334;75;942;-60
2021/01/04 02:39:50;;;;;;;;;;;23.50;39.50;;;;;;1538222;75;832;-61
2021/01/04 02:41:57;;;;;;;;;;;23.60;39.40;;;;;;1531282;75;749;-61
2021/01/04 02:43:58;;;;;;;;;;;23.60;39.40;;;;;;1531261;75;790;-60
2021/01/04 02:46:01;;;;;;;;;;;23.60;39.40;;;;;;1534939;75;1132;-61
2021/01/04 02:48:05;;;;;;;;;;;23.50;39.30;;;;;;1537142;75;759;-63
2021/01/04 02:50:09;;;;;;;;;;;23.50;39.20;;;;;;1526472;76;1116;-63
2021/01/04 02:52:12;;;;;;;;;;;23.50;39.20;;;;;;1542963;75;705;-61
2021/01/04 02:54:15;;;;;;;;;;;23.50;39.30;;;;;;1544413;75;1939;-61
2021/01/04 02:56:30;;;;;;;;;;;23.50;39.20;;;;;;1541978;75;1099;-61
2021/01/04 02:58:34;;;;;;;;;;;23.50;39.30;;;;;;1543033;75;1877;-61
2021/01/04 03:00:36;;;;;;;;;;;23.50;39.30;;;;;;1543044;75;783;-61
2021/01/04 03:02:39;;;;;;;;;;;23.50;39.30;;;;;;1554444;75;738;-60
2021/01/04 03:04:40;;;;;;;;;;;23.50;39.30;;;;;;1542878;75;928;-61
2021/01/04 03:06:44;;;;;;;;;;;23.50;39.20;;;;;;1542575;75;1145;-61
2021/01/04 03:08:46;;;;;;;;;;;23.50;39.20;;;;;;1526996;75;1685;-62
2021/01/04 03:10:48;;;;;;;;;;;23.60;39.00;;;;;;1548824;75;750;-61
2021/01/04 03:12:51;;;;;;;;;;;23.50;39.10;;;;;;1543317;75;783;-60
2021/01/04 03:15:07;;;;;;;;;;;23.60;39.10;;;;;;1544017;75;1943;-60
2021/01/04 03:17:13;;;;;;;;;;;23.50;39.10;;;;;;1560978;74;1144;-61
2021/01/04 03:19:17;;;;;;;;;;;23.50;39.00;;;;;;1533134;75;1696;-61
2021/01/04 03:21:20;;;;;;;;;;;23.60;39.00;;;;;;1536943;75;737;-61
2021/01/04 03:23:22;;;;;;;;;;;23.60;39.00;;;;;;1540140;75;1895;-61
2021/01/04 03:25:31;;;;;;;;;;;23.60;38.90;;;;;;1538189;75;791;-61
2021/01/04 03:27:33;;;;;;;;;;;23.60;39.00;;;;;;1537886;76;626;-61
2021/01/04 03:29:35;;;;;;;;;;;23.60;38.90;;;;;;1531699;76;701;-62
2021/01/04 03:31:37;;;;;;;;;;;23.70;38.90;;;;;;1532760;75;701;-62
2021/01/04 03:33:39;;;;;;;;;;;23.70;38.90;;;;;;1533246;75;1945;-61
2021/01/04 03:35:41;;;;;;;;;;;23.70;38.90;;;;;;1532565;75;1162;-59
2021/01/04 03:37:42;;;;;;;;;;;23.70;38.80;;;;;;1537654;75;666;-60
2021/01/04 03:39:44;;;;;;;;;;;23.80;38.80;;;;;;1516807;76;997;-60
2021/01/04 03:41:47;;;;;;;;;;;23.70;38.70;;;;;;1520701;75;809;-61
2021/01/04 03:43:49;;;;;;;;;;;23.60;38.50;;;;;;1523647;75;759;-60
2021/01/04 03:45:51;;;;;;;;;;;23.70;38.70;;;;;;1538957;75;1152;-60
2021/01/04 03:47:53;;;;;;;;;;;23.70;38.70;;;;;;1531705;76;747;-61
2021/01/04 03:49:55;;;;;;;;;;;23.60;38.50;;;;;;1531271;76;792;-61
2021/01/04 03:51:57;;;;;;;;;;;23.60;38.60;;;;;;1539441;76;798;-61
2021/01/04 03:53:59;;;;;;;;;;;23.60;38.30;;;;;;1539263;75;1948;-60
2021/01/04 03:56:01;;;;;;;;;;;23.50;38.70;;;;;;1538039;76;1151;-60
2021/01/04 03:58:03;;;;;;;;;;;23.60;38.90;;;;;;1538374;75;813;-61
2021/01/04 04:00:06;;;;;;;;;;;23.60;39.00;;;;;;1540381;75;892;-60
2021/01/04 04:02:08;;;;;;;;;;;23.50;39.10;;;;;;1535440;75;778;-61
2021/01/04 04:04:10;;;;;;;;;;;23.60;39.30;;;;;;1535332;75;760;-61
2021/01/04 04:06:12;;;;;;;;;;;23.50;39.40;;;;;;1533779;75;1144;-58
2021/01/04 04:08:14;;;;;;;;;;;23.50;39.50;;;;;;1534809;76;712;-61
2021/01/04 04:10:16;;;;;;;;;;;23.50;39.60;;;;;;1531091;75;724;-60
2021/01/04 04:12:18;;;;;;;;;;;23.50;39.70;;;;;;1537845;75;727;-61
2021/01/04 04:14:20;;;;;;;;;;;23.50;39.80;;;;;;1541717;75;1923;-60
2021/01/04 04:16:22;;;;;;;;;;;23.50;39.90;;;;;;1535661;75;1045;-61
2021/01/04 04:18:24;;;;;;;;;;;23.50;39.90;;;;;;1539934;75;807;-59
2021/01/04 04:20:26;;;;;;;;;;;23.50;40.00;;;;;;1531753;76;822;-59
2021/01/04 04:22:27;;;;;;;;;;;23.50;40.00;;;;;;1534806;76;818;-59
2021/01/04 04:24:29;;;;;;;;;;;23.50;40.00;;;;;;1540846;75;780;-61
2021/01/04 04:26:31;;;;;;;;;;;23.50;40.00;;;;;;1541665;75;1102;-61
2021/01/04 04:28:33;;;;;;;;;;;23.50;40.00;;;;;;1536633;75;717;-61
2021/01/04 04:30:35;;;;;;;;;;;23.50;40.20;;;;;;1537033;76;764;-60
2021/01/04 04:32:37;;;;;;;;;;;23.50;40.10;;;;;;1534397;75;710;-62
2021/01/04 04:34:39;;;;;;;;;;;23.50;40.20;;;;;;1531110;75;1934;-60
2021/01/04 04:36:41;;;;;;;;;;;23.40;40.20;;;;;;1529754;76;1124;-60
2021/01/04 04:38:43;;;;;;;;;;;23.50;40.30;;;;;;1530527;75;887;-60
2021/01/04 04:40:45;;;;;;;;;;;23.50;40.40;;;;;;1532455;75;977;-60
2021/01/04 04:42:47;;;;;;;;;;;23.50;40.30;;;;;;1510706;77;1205;-60
2021/01/04 04:44:51;;;;;;;;;;;23.50;40.40;;;;;;1532864;75;799;-60
2021/01/04 04:46:57;;;;;;;;;;;23.50;40.50;;;;;;1536632;75;1143;-60
2021/01/04 04:49:01;;;;;;;;;;;23.50;40.50;;;;;;1530591;75;813;-59
2021/01/04 04:51:04;;;;;;;;;;;23.60;40.40;;;;;;1534891;76;776;-59
2021/01/04 04:53:17;;;;;;;;;;;23.60;40.20;;;;;;1535023;75;771;-62
2021/01/04 04:55:37;;;;;;;;;;;23.50;40.30;;;;;;1530785;75;1914;-60
2021/01/04 04:57:43;;;;;;;;;;;23.50;40.20;;;;;;1537151;75;843;-60
2021/01/04 04:59:56;;;;;;;;;;;23.50;40.20;;;;;;1522157;76;1018;-61
2021/01/04 05:01:59;;;;;;;;;;;23.60;40.40;;;;;;1539429;75;838;-60
2021/01/04 05:04:11;;;;;;;;;;;23.50;40.40;;;;;;1536792;75;947;-60
2021/01/04 05:06:32;;;;;;;;;;;23.50;40.30;;;;;;1532170;75;1450;-60
2021/01/04 05:08:38;;;;;;;;;;;23.50;40.30;;;;;;1534323;75;758;-60
2021/01/04 05:10:41;;;;;;;;;;;23.50;40.30;;;;;;1530607;75;818;-60
2021/01/04 05:12:44;;;;;;;;;;;23.60;40.20;;;;;;1531335;75;778;-61
2021/01/04 05:14:50;;;;;;;;;;;23.60;40.20;;;;;;1533706;75;1922;-60
2021/01/04 05:17:10;;;;;;;;;;;23.60;40.20;;;;;;1539238;75;1565;-59
2021/01/04 05:19:30;;;;;;;;;;;23.60;40.20;;;;;;1533047;76;753;-59
2021/01/04 05:21:39;;;;;;;;;;;23.60;40.20;;;;;;1531472;75;925;-59
2021/01/04 05:23:43;;;;;;;;;;;23.60;40.20;;;;;;1525154;75;773;-61
2021/01/04 05:25:49;;;;;;;;;;;23.60;40.30;;;;;;1540149;75;1904;-61
2021/01/04 05:27:56;;;;;;;;;;;23.60;40.20;;;;;;1535642;75;2053;-61
2021/01/04 05:30:16;;;;;;;;;;;23.60;40.30;;;;;;1531623;75;801;-61
2021/01/04 05:32:19;;;;;;;;;;;23.60;40.20;;;;;;1535954;75;735;-60
2021/01/04 05:34:23;;;;;;;;;;;23.60;40.20;;;;;;1541572;75;1929;-59
2021/01/04 05:36:29;;;;;;;;;;;23.60;40.10;;;;;;1538281;76;1793;-59
2021/01/04 05:38:37;;;;;;;;;;;23.60;40.10;;;;;;1542286;76;773;-59
2021/01/04 05:40:41;;;;;;;;;;;23.60;40.10;;;;;;1546424;75;873;-60
2021/01/04 05:42:45;;;;;;;;;;;23.60;40.20;;;;;;1544252;76;1950;-60
2021/01/04 05:45:05;;;;;;;;;;;23.50;40.30;;;;;;1543766;75;1511;-62
2021/01/04 05:47:22;;;;;;;;;;;23.60;40.30;;;;;;1545463;75;1152;-60
2021/01/04 05:49:28;;;;;;;;;;;23.60;40.10;;;;;;1540561;75;1629;-61
2021/01/04 05:51:32;;;;;;;;;;;23.70;40.40;;;;;;1543166;76;768;-61
2021/01/04 05:53:34;;;;;;;;;;;23.70;40.60;;;;;;1541023;76;762;-59
2021/01/04 05:55:36;;;;;;;;;;;23.60;40.50;;;;;;1541934;76;1929;-58
2021/01/04 05:57:51;;;;;;;;;;;23.60;40.40;;;;;;1542569;75;805;-61
2021/01/04 05:59:53;;;;;;;;;;;23.60;40.20;;;;;;1542889;76;818;-61
2021/01/04 06:01:57;;;;;;;;;;;23.60;40.30;;;;;;1541373;75;590;-61
2021/01/04 06:04:02;;;;;;;;;;;23.60;40.30;;;;;;1541252;75;1877;-62
2021/01/04 06:06:08;;;;;;;;;;;23.60;40.30;;;;;;1540999;75;1172;-58
2021/01/04 06:08:20;;;;;;;;;;;23.60;40.30;;;;;;1539933;75;712;-61
2021/01/04 06:10:23;;;;;;;;;;;23.60;40.40;;;;;;1543544;75;696;-62
2021/01/04 06:12:29;;;;;;;;;;;23.60;40.20;;;;;;1544043;75;779;-61
2021/01/04 06:14:32;;;;;;;;;;;23.60;40.20;;;;;;1542534;75;1927;-61
2021/01/04 06:16:34;;;;;;;;;;;23.50;40.10;;;;;;1540710;75;1115;-60
2021/01/04 06:18:37;;;;;;;;;;;23.60;40.20;;;;;;1536522;76;787;-58
2021/01/04 06:20:41;;;;;;;;;;;23.70;40.30;;;;;;1535772;76;715;-62
2021/01/04 06:22:43;;;;;;;;;;;23.50;40.20;;;;;;1540559;75;1510;-59
2021/01/04 06:24:45;;;;;;;;;;;23.60;40.30;;;;;;1543569;75;1012;-59
2021/01/04 06:26:52;;;;;;;;;;;23.60;40.20;;;;;;1540981;75;1163;-61
2021/01/04 06:28:55;;;;;;;;;;;23.60;40.30;;;;;;1537210;75;1782;-58
2021/01/04 06:31:01;;;;;;;;;;;23.60;40.20;;;;;;1542739;75;753;-61
2021/01/04 06:33:12;;;;;;;;;;;23.60;40.20;;;;;;1546735;75;744;-60
2021/01/04 06:35:19;;;;;;;;;;;23.60;40.40;;;;;;1543909;76;1900;-61
2021/01/04 06:37:21;;;;;;;;;;;23.60;40.30;;;;;;1549822;76;1119;-61
2021/01/04 06:39:27;;;;;;;;;;;23.60;40.40;;;;;;1538972;76;827;-62
2021/01/04 06:41:30;;;;;;;;;;;23.60;40.20;;;;;;1545442;75;824;-60
2021/01/04 06:43:34;;;;;;;;;;;23.60;40.20;;;;;;1537090;75;780;-60
2021/01/04 06:45:40;;;;;;;;;;;23.60;40.10;;;;;;1541778;75;1624;-59
2021/01/04 06:48:00;;;;;;;;;;;23.70;40.30;;;;;;1533250;75;1660;-61
2021/01/04 06:50:06;;;;;;;;;;;23.70;40.30;;;;;;1530032;75;805;-61
2021/01/04 06:52:26;;;;;;;;;;;23.70;40.50;;;;;;1544009;76;789;-61
2021/01/04 06:54:33;;;;;;;;;;;23.70;40.40;;;;;;1541280;75;1917;-61
2021/01/04 06:56:36;;;;;;;;;;;23.70;40.40;;;;;;1543201;75;1816;-61
2021/01/04 06:58:52;;;;;;;;;;;23.70;40.40;;;;;;1543092;75;823;-61
2021/01/04 07:01:07;;;;;;;;;;;23.70;40.30;;;;;;1552539;75;1906;-60
2021/01/04 07:03:11;;;;;;;;;;;23.70;40.30;;;;;;1550217;75;1938;-61
2021/01/04 07:05:29;;;;;;;;;;;23.60;40.30;;;;;;1543671;75;783;-60
2021/01/04 07:07:38;;;;;;;;;;;23.70;40.50;;;;;;1542023;75;2043;-62
2021/01/04 07:09:42;;;;;;;;;;;23.70;40.30;;;;;;1544274;75;772;-60
2021/01/04 07:12:02;;;;;;;;;;;23.60;40.20;;;;;;1542109;75;1927;-59
2021/01/04 07:14:21;;;;;;;;;;;23.60;40.30;;;;;;1541881;75;758;-59
2021/01/04 07:16:33;;;;;;;;;;;23.70;40.40;;;;;;1544145;75;1128;-60
2021/01/04 07:18:43;;;;;;;;;;;23.70;40.30;;;;;;1540632;75;1773;-61
2021/01/04 07:20:56;;;;;;;;;;;23.70;40.30;;;;;;1544058;75;754;-62
2021/01/04 07:23:09;;;;;;;;;;;23.70;40.20;;;;;;1542573;76;906;-60
2021/01/04 07:25:15;;;;;;;;;;;23.70;40.20;;;;;;1544559;75;1978;-61
2021/01/04 07:27:18;;;;;;;;;;;23.70;40.20;;;;;;1544224;75;1200;-62
2021/01/04 07:29:28;;;;;;;;;;;23.70;40.20;;;;;;1531134;75;1915;-60
2021/01/04 07:31:34;;;;;;;;;;;23.70;40.20;;;;;;1544206;75;769;-60
2021/01/04 07:33:38;;;;;;;;;;;23.70;40.20;;;;;;1541901;75;761;-59
2021/01/04 07:35:44;;;;;;;;;;;23.80;40.20;;;;;;1528104;75;1950;-62
2021/01/04 07:37:50;;;;;;;;;;;23.70;40.20;;;;;;1544041;75;739;-61
2021/01/04 07:39:54;;;;;;;;;;;23.70;40.20;;;;;;1542923;75;1766;-62
2021/01/04 07:41:57;;;;;;;;;;;23.70;40.20;;;;;;1517063;77;1706;-61
2021/01/04 07:44:07;;;;;;;;;;;23.70;40.20;;;;;;1516432;77;770;-59
2021/01/04 07:46:28;;;;;;;;;;;23.70;40.10;;;;;;1516528;76;1085;-60
2021/01/04 07:48:44;;;;;;;;;;;23.80;40.20;;;;;;1513629;77;1952;-60
2021/01/04 07:50:50;;;;;;;;;;;23.70;40.60;;;;;;1538532;76;1768;-60
2021/01/04 07:52:53;;;;;;;;;;;23.70;40.50;;;;;;1547433;75;759;-60
2021/01/04 07:55:00;;;;;;;;;;;23.70;40.50;;;;;;1548695;75;1922;-61
2021/01/04 07:57:19;;;;;;;;;;;23.70;40.50;;;;;;1577860;74;213769;-70
2021/01/04 07:59:40;;;;;;;;;;;23.70;40.50;;;;;;1567884;74;773;-71
2021/01/04 08:01:52;;;;;;;;;;;23.70;40.50;;;;;;1581189;74;760;-70
2021/01/04 08:03:59;;;;;;;;;;;23.70;40.40;;;;;;1589962;74;760;-70
2021/01/04 08:06:02;;;;;;;;;;;23.70;40.40;;;;;;1569577;74;1129;-72
2021/01/04 08:08:06;;;;;;;;;;;23.70;40.50;;;;;;1564043;74;749;-70
2021/01/04 08:10:12;;;;;;;;;;;23.70;40.50;;;;;;1569768;74;1103;-68
2021/01/04 08:12:28;;;;;;;;;;;23.70;40.50;;;;;;1544229;75;1015;-69
2021/01/04 08:14:31;;;;;;;;;;;23.70;40.70;;;;;;1597989;73;760;-69
2021/01/04 08:16:37;;;;;;;;;;;23.70;40.60;;;;;;1588162;73;1917;-70
2021/01/04 08:18:39;;;;;;;;;;;23.80;40.50;;;;;;1575625;74;709;-70
2021/01/04 08:20:46;;;;;;;;;;;23.70;40.40;;;;;;1590025;73;790;-70
2021/01/04 08:23:05;;;;;;;;;;;23.70;40.50;;;;;;1595499;73;1687;-71
2021/01/04 08:25:12;;;;;;;;;;;23.70;40.50;;;;;;1585552;73;716;-67
2021/01/04 08:27:18;;;;;;;;;;;23.70;40.60;;;;;;1596135;72;752;-67
2021/01/04 08:29:24;;;;;;;;;;;23.70;40.50;;;;;;1595015;73;710;-67
2021/01/04 08:31:28;;;;;;;;;;;23.70;40.50;;;;;;1595636;73;1118;-66
2021/01/04 08:33:50;;;;;;;;;;;23.70;40.80;;;;;;1590918;73;2050;-70
2021/01/04 08:35:52;;;;;;;;;;;23.70;40.90;;;;;;1594268;73;1936;-73
2021/01/04 08:37:53;;;;;;;;;;;23.60;40.70;;;;;;1585565;74;723;-73
2021/01/04 08:39:55;;;;;;;;;;;23.60;40.80;;;;;;1602786;73;692;-72
2021/01/04 08:42:05;;;;;;;;;;;23.60;40.50;;;;;;1591289;74;784;-69
2021/01/04 08:44:14;;;;;;;;;;;23.60;40.30;;;;;;1579741;74;707;-72
2021/01/04 08:46:18;;;;;;;;;;;23.70;40.50;;;;;;1595871;73;1142;-71
2021/01/04 08:48:21;;;;;;;;;;;23.70;40.50;;;;;;1593465;73;677;-73
2021/01/04 08:50:24;;;;;;;;;;;23.70;40.40;;;;;;1599264;73;689;-72
2021/01/04 08:52:26;;;;;;;;;;;23.70;40.40;;;;;;1604821;73;608;-71
2021/01/04 08:54:31;;;;;;;;;;;23.80;40.40;;;;;;1591635;73;767;-73
2021/01/04 08:56:34;;;;;;;;;;;23.70;40.50;;;;;;1596864;73;1925;-69
2021/01/04 08:58:38;;;;;;;;;;;23.70;40.60;;;;;;1596085;73;1027;-71
2021/01/04 09:00:40;;;;;;;;;;;23.80;40.40;;;;;;1605744;73;936;-71
2021/01/04 09:02:42;;;;;;;;;;;23.70;40.30;;;;;;1601127;73;757;-69
2021/01/04 09:04:44;;;;;;;;;;;23.80;40.40;;;;;;1589282;74;783;-70
2021/01/04 09:06:47;;;;;;;;;;;23.80;40.30;;;;;;1597322;73;1115;-72
2021/01/04 09:08:51;;;;;;;;;;;23.70;40.50;;;;;;1599279;74;1154;-73
2021/01/04 09:10:53;;;;;;;;;;;23.80;40.50;;;;;;1596201;73;755;-72
2021/01/04 09:12:55;;;;;;;;;;;23.80;40.50;;;;;;1595883;73;712;-73
2021/01/04 09:15:04;;;;;;;;;;;23.70;40.50;;;;;;1592204;73;720;-72
2021/01/04 09:17:13;;;;;;;;;;;23.70;40.50;;;;;;1588370;73;1092;-71
2021/01/04 09:19:25;;;;;;;;;;;23.80;40.50;;;;;;1597167;73;717;-72
2021/01/04 09:21:29;;;;;;;;;;;23.70;40.50;;;;;;1590111;73;839;-69
2021/01/04 09:23:32;;;;;;;;;;;23.80;40.40;;;;;;1595457;73;770;-70
2021/01/04 09:25:44;;;;;;;;;;;23.70;39.80;;;;;;1598069;73;1141;-70
2021/01/04 09:27:47;;;;;;;;;;;23.90;39.20;;;;;;1590758;73;682;-70
2021/01/04 09:29:51;;;;;;;;;;;23.80;38.90;;;;;;1592636;73;789;-70
2021/01/04 09:31:54;;;;;;;;;;;23.90;38.80;;;;;;1597556;73;1681;-70
2021/01/04 09:33:56;;;;;;;;;;;23.90;38.60;;;;;;1589990;73;721;-71
2021/01/04 09:36:05;;;;;;;;;;;23.90;38.40;;;;;;1590959;73;1941;-69
2021/01/04 09:38:14;;;;;;;;;;;23.90;38.70;;;;;;1596428;74;690;-67
2021/01/04 09:40:20;;;;;;;;;;;23.90;38.80;;;;;;1594976;73;985;-68
2021/01/04 09:42:23;;;;;;;;;;;23.90;38.80;;;;;;1589928;73;772;-69
2021/01/04 09:44:24;;;;;;;;;;;24.00;38.40;;;;;;1597090;73;691;-67
2021/01/04 09:46:28;;;;;;;;;;;24.00;38.00;;;;;;1592487;73;1083;-68
2021/01/04 09:48:31;;;;;;;;;;;24.00;37.70;;;;;;1594215;73;1054;-71
2021/01/04 09:50:38;;;;;;;;;;;24.00;37.40;;;;;;1585839;73;659;-70
2021/01/04 09:52:44;;;;;;;;;;;23.90;37.20;;;;;;1596817;73;1754;-70
2021/01/04 09:54:47;;;;;;;;;;;24.00;37.00;;;;;;1591483;73;766;-69
2021/01/04 09:56:49;;;;;;;;;;;23.90;36.80;;;;;;1596823;73;1929;-66
2021/01/04 09:58:52;;;;;;;;;;;23.90;36.50;;;;;;1597185;73;699;-69
2021/01/04 10:00:56;;;;;;;;;;;23.90;36.40;;;;;;1594963;73;1027;-68
2021/01/04 10:02:59;;;;;;;;;;;23.90;36.20;;;;;;1592851;73;1319;-70
2021/01/04 10:05:05;;;;;;;;;;;23.90;35.90;;;;;;1592738;73;1338;-68
2021/01/04 10:07:08;;;;;;;;;;;23.90;35.70;;;;;;1604350;72;1770;-67
2021/01/04 10:09:11;;;;;;;;;;;23.90;35.70;;;;;;1599581;72;800;-70
2021/01/04 10:11:15;;;;;;;;;;;23.90;35.80;;;;;;1591821;73;1007;-68
2021/01/04 10:13:16;;;;;;;;;;;23.80;36.00;;;;;;1594680;73;1989;-70
2021/01/04 10:15:20;;;;;;;;;;;23.80;36.50;;;;;;1595911;73;1953;-65
2021/01/04 10:17:22;;;;;;;;;;;23.80;36.70;;;;;;1594855;73;1019;-71
2021/01/04 10:19:38;;;;;;;;;;;23.70;37.00;;;;;;1595279;73;801;-68
2021/01/04 10:21:41;;;;;;;;;;;23.60;37.30;;;;;;1595840;73;669;-68
2021/01/04 10:23:54;;;;;;;;;;;23.60;37.60;;;;;;1596953;73;780;-65
2021/01/04 10:25:58;;;;;;;;;;;23.60;37.80;;;;;;1598832;72;1142;-67
2021/01/04 10:28:00;;;;;;;;;;;23.60;37.50;;;;;;1594862;73;799;-70
2021/01/04 10:30:03;;;;;;;;;;;23.60;36.40;;;;;;1594468;73;646;-71
2021/01/04 10:32:12;;;;;;;;;;;23.60;35.40;;;;;;1602064;73;731;-68
2021/01/04 10:34:15;;;;;;;;;;;23.60;34.20;;;;;;1592798;73;711;-72
2021/01/04 10:36:19;;;;;;;;;;;23.60;34.20;;;;;;1608977;72;1957;-69
2021/01/04 10:38:20;;;;;;;;;;;23.60;33.40;;;;;;1582736;73;737;-71
2021/01/04 10:40:23;;;;;;;;;;;23.60;32.20;;;;;;1595449;73;706;-73
2021/01/04 10:42:25;;;;;;;;;;;23.50;32.10;;;;;;1598595;73;713;-70
2021/01/04 10:44:27;;;;;;;;;;;23.50;31.90;;;;;;1599417;73;751;-71
2021/01/04 10:46:30;;;;;;;;;;;23.40;31.20;;;;;;1596925;72;1129;-71
2021/01/04 10:48:34;;;;;;;;;;;23.40;30.50;;;;;;1594836;73;1121;-70
2021/01/04 10:50:36;;;;;;;;;;;23.30;30.10;;;;;;1598796;73;1708;-70
2021/01/04 10:52:38;;;;;;;;;;;23.20;29.50;;;;;;1600395;74;650;-70
2021/01/04 10:54:40;;;;;;;;;;;23.20;28.90;;;;;;1597518;73;745;-71
2021/01/04 10:56:43;;;;;;;;;;;23.10;29.00;;;;;;1596587;73;1946;-70
2021/01/04 10:58:49;;;;;;;;;;;23.10;28.70;;;;;;1597536;73;814;-70
2021/01/04 11:00:53;;;;;;;;;;;23.00;28.00;;;;;;1595907;74;758;-71
2021/01/04 11:02:55;;;;;;;;;;;23.00;27.90;;;;;;1597010;73;1088;-71
2021/01/04 11:04:57;;;;;;;;;;;23.00;27.60;;;;;;1596278;73;867;-71
2021/01/04 11:07:03;;;;;;;;;;;22.90;27.40;;;;;;1581632;73;1154;-72
2021/01/04 11:09:12;;;;;;;;;;;22.90;27.20;;;;;;1575232;73;725;-70
2021/01/04 11:11:37;;;;;;;;;;;22.80;26.90;;;;;;1582481;73;750;-71
2021/01/04 11:13:39;;;;;;;;;;;22.80;26.80;;;;;;1594285;73;679;-72
2021/01/04 11:15:41;;;;;;;;;;;22.70;26.50;;;;;;1592608;73;1937;-70
2021/01/04 11:17:43;;;;;;;;;;;22.70;26.20;;;;;;1596463;73;1211;-71
2021/01/04 11:19:45;;;;;;;;;;;22.70;26.00;;;;;;1597129;73;783;-71
2021/01/04 11:21:47;;;;;;;;;;;22.60;26.00;;;;;;1599104;73;723;-71
2021/01/04 11:23:48;;;;;;;;;;;22.50;25.80;;;;;;1595947;73;729;-71
2021/01/04 11:25:50;;;;;;;;;;;22.50;25.60;;;;;;1597937;73;1126;-71
2021/01/04 11:27:52;;;;;;;;;;;22.40;25.50;;;;;;1597614;73;866;-72
2021/01/04 11:29:54;;;;;;;;;;;22.40;25.40;;;;;;1593481;74;689;-71
2021/01/04 11:31:56;;;;;;;;;;;22.40;25.30;;;;;;1593271;73;687;-71
2021/01/04 11:33:58;;;;;;;;;;;22.30;25.20;;;;;;1596930;73;748;-69
2021/01/04 11:36:00;;;;;;;;;;;22.30;25.90;;;;;;1595403;73;1938;-70
2021/01/04 11:38:02;;;;;;;;;;;22.30;28.40;;;;;;1596956;73;684;-72
2021/01/04 11:40:04;;;;;;;;;;;22.20;30.20;;;;;;1596242;73;724;-71
2021/01/04 11:42:06;;;;;;;;;;;22.00;31.20;;;;;;1596805;73;755;-70
2021/01/04 11:44:08;;;;;;;;;;;22.00;32.20;;;;;;1585810;73;779;-69
2021/01/04 11:46:10;;;;;;;;;;;21.90;32.90;;;;;;1582805;73;1156;-71
2021/01/04 11:48:12;;;;;;;;;;;21.90;33.20;;;;;;1594345;73;701;-70
2021/01/04 11:50:15;;;;;;;;;;;21.80;34.60;;;;;;1598614;73;738;-68
2021/01/04 11:52:17;;;;;;;;;;;21.90;35.20;;;;;;1594230;73;756;-68
2021/01/04 11:54:19;;;;;;;;;;;21.90;35.70;;;;;;1594362;73;798;-67
2021/01/04 11:56:21;;;;;;;;;;;21.90;36.00;;;;;;1590263;73;1945;-67
2021/01/04 11:58:23;;;;;;;;;;;21.80;36.20;;;;;;1575522;75;1222;-67
2021/01/04 12:00:25;;;;;;;;;;;21.80;36.80;;;;;;1600789;73;787;-66
2021/01/04 12:02:27;;;;;;;;;;;21.80;37.30;;;;;;1599830;73;716;-68
2021/01/04 12:04:29;;;;;;;;;;;21.80;37.50;;;;;;1595686;73;779;-67
2021/01/04 12:06:31;;;;;;;;;;;21.80;37.90;;;;;;1595379;73;1162;-67
2021/01/04 12:08:33;;;;;;;;;;;21.80;38.20;;;;;;1599110;74;761;-68
2021/01/04 12:10:35;;;;;;;;;;;21.80;37.10;;;;;;1580972;73;734;-68
2021/01/04 12:12:37;;;;;;;;;;;21.80;37.80;;;;;;1594457;73;777;-68
2021/01/04 12:14:39;;;;;;;;;;;21.90;38.20;;;;;;1593651;73;1131;-69
2021/01/04 12:16:41;;;;;;;;;;;21.90;37.30;;;;;;1600985;72;1929;-69
2021/01/04 12:18:43;;;;;;;;;;;21.80;37.70;;;;;;1598220;72;652;-68
2021/01/04 12:20:45;;;;;;;;;;;21.90;38.40;;;;;;1596851;73;732;-67
2021/01/04 12:22:47;;;;;;;;;;;21.90;37.80;;;;;;1590753;73;657;-66
2021/01/04 12:24:49;;;;;;;;;;;22.00;38.70;;;;;;1596576;73;737;-67
2021/01/04 12:26:51;;;;;;;;;;;22.00;38.10;;;;;;1596622;73;1139;-68
2021/01/04 12:28:53;;;;;;;;;;;21.90;38.10;;;;;;1595311;73;756;-67